Time;durP1;ratioP1;P1;durP2;ratioP2;P2;SDS_P1;SDS_P2;PMS_P1;PMS_P2;Temp;Humidity;BMP_temperature;BMP_pressure;BME280_temperature;BME280_humidity;BME280_pressure;Samples;Min_cycle;Max_cycle;Signal;HPM_P1;HPM_P2
2022/05/21 00:00:09;;;;;;;7.18;2.47;;;26.60;36.30;;;;;;20917325;28;20091;-68
2022/05/21 00:10:13;;;;;;;5.40;2.70;;;26.40;36.40;;;;;;20918009;28;20179;-68
2022/05/21 00:30:36;;;;;;;7.93;2.97;;;26.30;36.50;;;;;;20917139;28;20408;-62
2022/05/21 00:40:38;;;;;;;5.95;2.97;;;26.20;36.60;;;;;;20922077;28;20045;-66
2022/05/21 00:50:40;;;;;;;8.07;3.25;;;26.10;37.20;;;;;;20933829;28;20045;-67
2022/05/21 01:00:42;;;;;;;7.10;3.08;;;26.00;37.50;;;;;;20951460;28;20493;-68
2022/05/21 01:10:50;;;;;;;6.03;2.80;;;26.10;37.40;;;;;;20943627;28;20064;-63
2022/05/21 01:20:58;;;;;;;5.85;2.90;;;26.00;37.50;;;;;;20927016;28;20051;-68
2022/05/21 01:31:02;;;;;;;5.75;2.70;;;;;;;;;;20914019;28;20095;-63
2022/05/21 01:41:10;;;;;;;7.60;3.10;;;25.80;37.80;;;;;;20910968;28;20052;-63
2022/05/21 01:51:19;;;;;;;7.63;3.53;;;25.70;38.20;;;;;;20910081;28;20045;-63
2022/05/21 02:01:25;;;;;;;7.15;3.35;;;25.60;38.40;;;;;;20911114;28;20433;-62
2022/05/21 02:11:31;;;;;;;8.55;2.70;;;25.50;38.70;;;;;;20910546;28;20045;-63
2022/05/21 02:21:38;;;;;;;7.82;3.72;;;25.40;38.80;;;;;;20911046;28;20049;-62
2022/05/21 02:31:40;;;;;;;5.05;2.78;;;25.30;39.00;;;;;;20926168;28;20084;-63
2022/05/21 02:41:42;;;;;;;6.68;3.20;;;25.20;39.00;;;;;;20925592;28;20053;-68
2022/05/21 02:51:44;;;;;;;;;;;25.10;39.00;;;;;;20923854;28;20053;-66
2022/05/21 03:01:46;;;;;;;7.23;3.03;;;24.90;39.00;;;;;;20922917;28;20373;-63
2022/05/21 03:11:48;;;;;;;6.60;3.40;;;24.80;39.10;;;;;;20920886;28;20505;-63
2022/05/21 03:21:50;;;;;;;;;;;24.70;39.30;;;;;;20920855;28;20049;-64
2022/05/21 03:31:53;;;;;;;;;;;24.50;39.80;;;;;;20921137;28;19927;-65
2022/05/21 03:41:55;;;;;;;7.97;3.17;;;24.40;40.00;;;;;;20919577;28;20327;-61
2022/05/21 03:51:57;;;;;;;8.20;2.90;;;24.20;40.20;;;;;;20918758;28;20080;-63
2022/05/21 04:02:01;;;;;;;6.97;3.17;;;24.10;39.80;;;;;;20917989;28;20061;-64
2022/05/21 04:12:04;;;;;;;7.10;3.40;;;24.10;40.00;;;;;;20918402;28;20076;-69
2022/05/21 04:22:07;;;;;;;7.57;3.20;;;24.00;40.00;;;;;;20917047;28;20045;-65
2022/05/21 04:32:11;;;;;;;8.52;2.92;;;23.90;39.60;;;;;;20915901;28;20052;-65
2022/05/21 04:42:12;;;;;;;5.93;2.83;;;23.80;39.90;;;;;;20916012;28;20481;-68
2022/05/21 04:52:14;;;;;;;6.37;3.13;;;23.70;39.70;;;;;;20915010;28;20071;-66
2022/05/21 05:02:16;;;;;;;7.47;2.87;;;23.50;40.50;;;;;;20914252;28;20057;-68
2022/05/21 05:12:18;;;;;;;8.97;3.60;;;23.40;40.90;;;;;;20913510;28;20049;-65
2022/05/21 05:22:20;;;;;;;9.73;3.60;;;23.20;43.90;;;;;;20912784;28;20056;-69
2022/05/21 05:32:22;;;;;;;8.73;3.80;;;23.00;44.90;;;;;;20913887;28;20409;-70
2022/05/21 05:42:25;;;;;;;11.00;3.83;;;22.80;45.60;;;;;;20912224;28;20486;-69
2022/05/21 05:52:27;;;;;;;11.70;3.50;;;22.70;46.00;;;;;;20912811;28;20091;-69
2022/05/21 06:12:49;;;;;;;10.52;4.00;;;22.60;46.70;;;;;;20928522;28;19927;-68
2022/05/21 06:22:51;;;;;;;8.07;3.97;;;22.70;46.60;;;;;;20927363;28;20084;-67
2022/05/21 06:32:54;;;;;;;10.33;3.80;;;22.90;46.00;;;;;;20926790;28;20045;-69
2022/05/21 06:43:00;;;;;;;5.93;3.75;;;23.10;45.60;;;;;;20925308;28;20048;-70
2022/05/21 06:53:02;;;;;;;8.40;2.92;;;23.30;44.40;;;;;;20925251;28;20148;-69
2022/05/21 07:03:03;;;;;;;6.10;2.50;;;24.00;39.00;;;;;;20923147;28;20410;-69
2022/05/21 07:13:05;;;;;;;8.27;2.73;;;24.50;36.20;;;;;;20921426;28;20056;-64
2022/05/21 07:23:07;;;;;;;7.82;2.55;;;24.80;36.00;;;;;;20920479;28;20049;-63
2022/05/21 07:33:11;;;;;;;7.75;2.60;;;25.10;35.30;;;;;;20921420;28;20405;-62
2022/05/21 07:43:19;;;;;;;5.55;2.40;;;25.40;35.00;;;;;;20919596;28;20053;-64
2022/05/21 07:53:24;;;;;;;8.35;2.53;;;25.90;34.20;;;;;;20918769;28;20045;-63
2022/05/21 08:03:26;;;;;;;7.47;2.90;;;26.40;32.60;;;;;;20917620;28;20172;-64
2022/05/21 08:13:27;;;;;;;6.28;2.90;;;26.50;31.70;;;;;;20917045;28;20102;-63
2022/05/21 08:33:49;;;;;;;7.10;2.60;;;27.10;31.30;;;;;;20915893;28;20413;-64
2022/05/21 08:44:19;;;;;;;12.80;3.67;;;27.10;31.30;;;;;;20915147;28;20049;-64
2022/05/21 08:54:31;;;;;;;7.13;2.20;;;27.30;29.50;;;;;;20914001;28;20139;-65
2022/05/21 09:04:32;;;;;;;5.45;2.55;;;27.60;28.60;;;;;;20896694;28;20098;-62
2022/05/21 09:14:41;;;;;;;4.20;2.28;;;27.70;28.70;;;;;;20913428;28;20049;-62
2022/05/21 09:24:50;;;;;;;4.00;2.43;;;28.00;28.20;;;;;;20912813;28;20413;-65
2022/05/21 09:35:13;;;;;;;6.05;2.30;;;28.10;28.40;;;;;;20910655;28;20106;-68
2022/05/21 09:45:27;;;;;;;8.10;2.33;;;28.30;28.00;;;;;;20912160;28;20052;-64
2022/05/21 09:55:30;;;;;;;10.90;2.33;;;28.30;27.60;;;;;;20910541;28;20041;-52
2022/05/21 10:05:50;;;;;;;6.10;2.67;;;28.70;27.00;;;;;;20857589;28;20047;-58
2022/05/21 10:16:14;;;;;;;9.88;3.17;;;28.90;28.00;;;;;;20868446;28;20084;-60
2022/05/21 10:26:38;;;;;;;6.32;2.80;;;29.10;26.70;;;;;;20869333;28;20191;-59
2022/05/21 10:37:09;;;;;;;13.48;3.88;;;29.40;26.20;;;;;;20865982;28;20045;-55
2022/05/21 10:47:29;;;;;;;;;;;29.80;30.80;;;;;;20875385;28;20136;-56
2022/05/21 10:57:46;;;;;;;10.10;2.95;;;29.70;29.10;;;;;;20881729;28;19933;-60
2022/05/21 11:07:54;;;;;;;6.97;2.67;;;29.60;28.00;;;;;;20887960;28;20556;-60
2022/05/21 11:18:26;;;;;;;9.18;3.10;;;29.90;27.20;;;;;;20887593;28;20049;-57
2022/05/21 11:28:52;;;;;;;14.25;3.08;;;30.00;27.10;;;;;;20895499;28;20135;-57
2022/05/21 11:38:54;;;;;;;10.02;2.30;;;30.20;26.30;;;;;;20911819;28;20053;-74
2022/05/21 11:48:56;;;;;;;11.43;3.72;;;30.40;25.40;;;;;;20919064;28;20049;-54
2022/05/21 11:58:58;;;;;;;19.27;4.90;;;30.50;25.30;;;;;;20916969;28;20082;-60
2022/05/21 12:09:25;;;;;;;8.98;2.60;;;30.70;25.80;;;;;;20918710;28;20048;-57
2022/05/21 12:19:55;;;;;;;9.05;2.92;;;31.10;24.50;;;;;;20916716;28;20057;-58
2022/05/21 12:30:03;;;;;;;15.98;6.03;;;31.30;24.40;;;;;;20916669;28;20056;-57
2022/05/21 12:40:31;;;;;;;12.00;3.60;;;31.30;24.10;;;;;;20914600;28;20059;-57
2022/05/21 12:50:33;;;;;;;10.65;4.07;;;31.50;24.10;;;;;;20909892;28;20355;-58
2022/05/21 13:00:36;;;;;;;12.25;3.40;;;31.60;23.70;;;;;;20911431;28;20064;-58
2022/05/21 13:10:49;;;;;;;8.75;3.72;;;31.90;23.70;;;;;;20910448;28;20049;-66
2022/05/21 13:21:00;;;;;;;15.68;4.63;;;32.00;23.80;;;;;;20911959;28;20088;-66
2022/05/21 13:31:18;;;;;;;14.63;3.15;;;32.20;23.20;;;;;;20911300;28;20553;-65
2022/05/21 13:41:29;;;;;;;10.68;3.40;;;32.40;22.60;;;;;;20910998;28;20053;-66
2022/05/21 13:51:33;;;;;;;11.13;3.70;;;32.50;22.70;;;;;;20910042;28;20182;-64
2022/05/21 14:01:36;;;;;;;10.50;3.38;;;32.80;22.60;;;;;;20902566;28;20049;-61
2022/05/21 14:11:38;;;;;;;12.43;3.30;;;33.00;21.90;;;;;;20909410;28;20516;-59
2022/05/21 14:22:03;;;;;;;10.98;3.75;;;33.30;20.40;;;;;;20915725;28;20119;-58
2022/05/21 14:32:40;;;;;;;10.68;3.42;;;33.30;19.90;;;;;;20923279;28;20406;-64
2022/05/21 14:42:42;;;;;;;15.02;4.20;;;33.40;19.60;;;;;;20923446;28;20095;-62
2022/05/21 14:52:51;;;;;;;12.18;3.55;;;33.40;19.40;;;;;;20923099;28;20472;-69
2022/05/21 15:02:53;;;;;;;;;;;33.40;19.50;;;;;;20923263;28;20501;-67
2022/05/21 15:12:54;;;;;;;14.48;4.68;;;33.30;20.20;;;;;;20923537;28;19921;-70
2022/05/21 15:22:56;;;;;;;16.58;4.40;;;33.30;20.70;;;;;;20944741;28;20055;-69
2022/05/21 15:32:57;;;;;;;11.35;4.30;;;33.40;20.90;;;;;;20921364;28;20049;-69
2022/05/21 15:42:59;;;;;;;12.77;4.28;;;33.50;20.40;;;;;;20918819;28;20049;-64
2022/05/21 15:53:01;;;;;;;16.52;3.95;;;33.50;20.30;;;;;;20918470;28;20514;-70
2022/05/21 16:03:03;;;;;;;15.23;3.80;;;33.50;20.40;;;;;;20917051;28;20053;-64
2022/05/21 16:13:05;;;;;;;18.70;4.30;;;33.60;20.20;;;;;;20916932;28;20086;-69
2022/05/21 16:23:06;;;;;;;10.30;3.33;;;33.60;20.90;;;;;;20916433;28;20076;-61
2022/05/21 16:33:08;;;;;;;15.55;4.68;;;33.60;20.20;;;;;;20914839;28;20096;-69
2022/05/21 16:43:09;;;;;;;11.68;3.92;;;33.70;20.40;;;;;;20914375;28;20130;-66
2022/05/21 16:53:11;;;;;;;15.77;4.95;;;33.70;20.40;;;;;;20912655;28;20048;-68
2022/05/21 17:03:13;;;;;;;14.70;3.72;;;33.80;20.70;;;;;;20912540;28;20056;-65
2022/05/21 17:13:15;;;;;;;9.88;3.30;;;33.70;20.70;;;;;;20912466;28;20485;-67
2022/05/21 17:23:19;;;;;;;10.88;4.43;;;33.70;20.60;;;;;;20912454;28;20055;-69
2022/05/21 17:33:21;;;;;;;14.60;3.40;;;33.50;20.90;;;;;;20911255;28;20053;-69
2022/05/21 17:43:23;;;;;;;14.18;4.18;;;33.50;22.80;;;;;;20911443;28;20045;-71
2022/05/21 17:53:25;;;;;;;12.32;3.63;;;33.20;23.40;;;;;;20912247;28;20453;-68
2022/05/21 18:03:29;;;;;;;10.68;3.53;;;33.00;24.00;;;;;;20927045;28;20501;-60
2022/05/21 18:13:31;;;;;;;10.38;3.63;;;32.70;25.30;;;;;;20927086;28;20044;-65
2022/05/21 18:23:34;;;;;;;10.32;3.67;;;32.40;26.10;;;;;;20925236;28;20052;-60
2022/05/21 18:33:37;;;;;;;14.65;4.30;;;32.10;26.60;;;;;;20923504;28;20489;-60
2022/05/21 18:43:39;;;;;;;16.85;4.65;;;31.90;26.00;;;;;;20924030;28;20052;-61
2022/05/21 18:53:41;;;;;;;15.00;5.15;;;31.60;28.40;;;;;;20921710;28;20142;-63
2022/05/21 19:03:43;;;;;;;13.88;4.60;;;30.70;34.10;;;;;;20922902;28;20067;-65
2022/05/21 19:13:46;;;;;;;14.20;3.60;;;30.40;34.40;;;;;;20920955;28;20041;-60
2022/05/21 19:23:49;;;;;;;14.35;4.97;;;30.20;32.10;;;;;;20920885;28;20417;-63
2022/05/21 19:33:51;;;;;;;9.52;3.40;;;29.90;33.10;;;;;;20919391;28;20060;-69
2022/05/21 19:43:54;;;;;;;18.20;5.60;;;29.50;33.80;;;;;;20919393;28;20049;-61
2022/05/21 19:53:55;;;;;;;16.45;4.97;;;29.30;34.10;;;;;;20918013;28;20048;-66
2022/05/21 20:04:00;;;;;;;14.18;4.00;;;29.10;35.10;;;;;;20916929;28;20090;-69
2022/05/21 20:14:02;;;;;;;19.50;6.35;;;29.10;34.80;;;;;;20917252;28;20053;-65
2022/05/21 20:24:04;;;;;;;20.20;7.07;;;28.80;32.80;;;;;;20916289;28;20048;-62
2022/05/21 20:34:05;;;;;;;22.17;9.40;;;28.80;32.20;;;;;;20915284;28;20274;-67
2022/05/21 20:44:07;;;;;;;20.33;9.13;;;28.60;34.20;;;;;;20913734;28;20159;-63
2022/05/21 20:54:09;;;;;;;16.63;6.82;;;28.60;34.10;;;;;;20914101;28;20087;-60
2022/05/21 21:04:11;;;;;;;18.73;9.60;;;28.60;33.20;;;;;;20913832;28;20055;-69
2022/05/21 21:14:13;;;;;;;21.83;8.25;;;28.50;33.20;;;;;;20913069;28;20049;-70
2022/05/21 21:24:16;;;;;;;24.08;9.68;;;28.60;34.20;;;;;;20912846;28;20090;-68
2022/05/21 21:34:17;;;;;;;17.23;8.35;;;28.50;33.30;;;;;;20912013;28;20083;-71
2022/05/21 21:44:19;;;;;;;21.77;10.60;;;28.20;33.20;;;;;;20912072;28;20063;-70
2022/05/21 21:54:21;;;;;;;21.67;8.38;;;28.10;33.40;;;;;;20911495;28;20508;-66
2022/05/21 22:04:25;;;;;;;21.80;6.15;;;28.00;33.10;;;;;;20912054;28;20161;-68
2022/05/21 22:14:27;;;;;;;16.60;6.40;;;28.00;33.20;;;;;;20911242;28;20068;-69
2022/05/21 22:24:29;;;;;;;18.30;7.43;;;28.20;33.80;;;;;;20911136;28;20053;-66
2022/05/21 22:34:31;;;;;;;19.77;7.72;;;28.20;34.40;;;;;;20910733;28;20045;-69
2022/05/21 22:44:33;;;;;;;18.00;7.30;;;28.10;34.90;;;;;;20920263;28;20139;-71
2022/05/21 22:54:34;;;;;;;15.50;5.60;;;28.00;33.80;;;;;;20924236;28;20501;-69
2022/05/21 23:04:36;;;;;;;18.17;7.38;;;28.00;33.40;;;;;;20925727;28;20064;-60
2022/05/21 23:25:00;;;;;;;12.75;4.95;;;27.70;33.60;;;;;;20922048;28;20057;-62
2022/05/21 23:35:04;;;;;;;16.35;6.03;;;27.80;33.80;;;;;;20921524;28;20497;-61
2022/05/21 23:45:06;;;;;;;16.92;4.88;;;27.80;33.80;;;;;;20921094;28;20057;-59
2022/05/21 23:55:09;;;;;;;12.98;5.05;;;27.70;33.60;;;;;;20917029;28;20056;-59
